Current Weather

Annapolis United States Naval

Annapolis United States Naval, Maryland (KNAK)

Report from: Friday, April 19, 2024 8:54 AM UTC
Current time: Friday, April 19, 2024 10:03 AM UTC

Nearby weather – Weather history – Daily summaries
Weather forecast

Temperature10.6°C (51.1°F)
Dew point7.2°C (45.0°F)
Winds 4 kts (2.1 m/s, 4.6 mph) East-Northeast (70°)
Visibility10 mi. (16.1 km)
Clouds Ceiling: Overcast 1,600 ft. (488 m)
Altimeter30.13 in.Hg (1020 mB)
Relative humidity79 %
Density altitude-621 ft. (-189 m)
Sea-level pressure102.0 kPa (1020 mB, 30.13 in.Hg)
Remarks Fully automated report
System requires maintenance
Automated weather observing station with precipitation discriminator
Pressure rising more quickly
Flight conditions Marginal Visual Meteorological Conditions
Raw dataKNAK 190854Z AUTO 07004KT 10SM OVC016 11/07 A3013 RMK AO2 SLP204 T01060072 53001 $
An error has occurred. This application may no longer respond until reloaded. Reload 🗙